createdAt,value
2022-10-23T00:03:39.923Z,14.20
2022-10-23T00:08:42.180Z,15.00
2022-10-23T00:13:44.398Z,15.80
2022-10-23T00:18:46.305Z,13.10
2022-10-23T00:23:48.150Z,13.60
2022-10-23T00:28:52.461Z,14.20
2022-10-23T00:33:54.654Z,15.70
2022-10-23T00:38:56.870Z,13.90
2022-10-23T00:43:58.631Z,15.30
2022-10-23T00:49:01.267Z,14.80
2022-10-23T00:54:24.002Z,18.70
2022-10-23T00:59:27.537Z,18.60
2022-10-23T01:04:30.308Z,18.90
2022-10-23T01:09:36.790Z,19.60
2022-10-23T01:15:05.412Z,20.30
2022-10-23T01:20:36.610Z,19.30
2022-10-23T01:26:02.585Z,19.70
2022-10-23T01:31:11.725Z,18.80
2022-10-23T01:36:16.790Z,18.80
2022-10-23T01:41:27.973Z,20.00
2022-10-23T01:46:31.489Z,17.80
2022-10-23T01:51:37.072Z,18.80
2022-10-23T01:56:45.083Z,18.20
2022-10-23T02:01:51.334Z,18.40
2022-10-23T02:06:53.970Z,19.20
2022-10-23T02:12:07.110Z,19.90
2022-10-23T02:17:26.878Z,21.30
2022-10-23T02:22:38.334Z,20.90
2022-10-23T02:27:50.992Z,20.00
2022-10-23T02:32:55.441Z,18.60
2022-10-23T02:37:59.607Z,21.90
2022-10-23T02:43:10.044Z,19.20
2022-10-23T02:48:19.072Z,20.00
2022-10-23T02:53:48.398Z,21.30
2022-10-23T02:59:43.772Z,20.40
2022-10-23T03:04:47.135Z,19.50
2022-10-23T03:09:49.316Z,19.80
2022-10-23T03:14:51.116Z,19.40
2022-10-23T03:19:53.101Z,17.10
2022-10-23T03:24:54.847Z,15.30
2022-10-23T03:29:56.588Z,15.80
2022-10-23T03:34:58.382Z,13.80
2022-10-23T03:40:00.129Z,14.80
2022-10-23T03:45:04.948Z,15.20
2022-10-23T03:50:10.679Z,13.80
2022-10-23T03:55:13.889Z,13.90
2022-10-23T04:00:15.828Z,14.20
2022-10-23T04:05:21.971Z,16.50
2022-10-23T04:10:28.271Z,17.30
2022-10-23T04:15:30.543Z,15.70
2022-10-23T04:20:32.789Z,19.80
2022-10-23T04:25:37.219Z,17.10
2022-10-23T04:30:39.318Z,16.60
2022-10-23T04:35:41.264Z,16.10
2022-10-23T04:40:43.114Z,16.10
2022-10-23T04:45:45.027Z,16.50
2022-10-23T04:50:58.786Z,17.20
2022-10-23T04:56:07.184Z,15.70
2022-10-23T05:01:22.535Z,18.70
2022-10-23T05:06:24.597Z,17.60
2022-10-23T05:11:56.548Z,17.20
2022-10-23T05:17:02.810Z,17.50
2022-10-23T05:22:05.917Z,16.60
2022-10-23T05:27:28.335Z,17.20
2022-10-23T05:32:32.649Z,17.70
2022-10-23T05:37:34.671Z,16.20
2022-10-23T05:42:47.618Z,15.40
2022-10-23T05:48:01.332Z,16.10
2022-10-23T05:53:38.870Z,16.30
2022-10-23T05:58:50.521Z,14.90
2022-10-23T06:04:05.458Z,15.60
2022-10-23T06:09:25.655Z,15.80
2022-10-23T06:14:30.777Z,15.10
2022-10-23T06:19:33.173Z,14.10
2022-10-23T06:24:35.068Z,13.70
2022-10-23T06:29:39.778Z,14.10
2022-10-23T06:34:42.100Z,13.70
2022-10-23T06:39:44.122Z,12.00
2022-10-23T06:44:52.007Z,11.30
2022-10-23T06:50:10.617Z,11.70
2022-10-23T06:55:15.300Z,11.30
2022-10-23T07:00:17.334Z,10.80
2022-10-23T07:05:24.658Z,10.70
2022-10-23T07:10:27.759Z,12.90
2022-10-23T07:15:32.698Z,10.80
2022-10-23T07:20:35.713Z,11.50
2022-10-23T07:25:38.032Z,10.50
2022-10-23T07:30:41.402Z,11.40
2022-10-23T07:35:47.415Z,10.90
2022-10-23T07:40:57.767Z,11.90
2022-10-23T07:45:59.770Z,11.20
2022-10-23T07:51:12.446Z,11.80
2022-10-23T07:56:23.451Z,11.90
2022-10-23T08:06:56.409Z,11.60
2022-10-23T08:11:59.014Z,12.00
2022-10-23T08:22:47.134Z,11.30
2022-10-23T08:27:53.262Z,11.70
2022-10-23T08:32:55.291Z,10.90
2022-10-23T08:37:57.283Z,11.30
2022-10-23T08:43:12.067Z,12.30
2022-10-23T08:48:30.237Z,12.80
2022-10-23T08:54:21.555Z,14.20
2022-10-23T08:59:44.063Z,12.50
2022-10-23T09:04:48.891Z,11.20
2022-10-23T09:10:03.690Z,10.70
2022-10-23T09:15:21.456Z,9.50
2022-10-23T09:20:27.280Z,10.10
2022-10-23T09:25:34.103Z,8.80
2022-10-23T09:30:37.057Z,8.80
2022-10-23T09:35:38.865Z,8.10
2022-10-23T09:40:43.151Z,8.60
2022-10-23T09:46:03.058Z,8.40
2022-10-23T09:51:17.968Z,9.50
2022-10-23T09:56:28.124Z,8.10
2022-10-23T10:01:33.313Z,8.40
2022-10-23T10:06:58.482Z,7.70
2022-10-23T10:12:22.944Z,7.10
2022-10-23T10:17:43.735Z,6.00
2022-10-23T10:23:13.398Z,5.70
2022-10-23T10:28:47.427Z,5.70
2022-10-23T10:34:00.762Z,7.10
2022-10-23T10:39:09.074Z,8.90
2022-10-23T10:44:34.206Z,6.40
2022-10-23T10:49:53.824Z,5.70
2022-10-23T10:55:28.613Z,6.20
2022-10-23T11:00:33.238Z,6.20
2022-10-23T11:05:40.977Z,6.60
2022-10-23T11:10:46.753Z,6.20
2022-10-23T11:15:48.928Z,5.50
2022-10-23T11:21:12.539Z,7.20
2022-10-23T11:26:39.347Z,6.50
2022-10-23T11:31:56.548Z,5.60
2022-10-23T11:37:04.908Z,6.70
2022-10-23T11:42:06.946Z,6.10
2022-10-23T11:47:38.217Z,6.20
2022-10-23T11:53:13.576Z,5.20
2022-10-23T11:58:22.185Z,5.30
2022-10-23T12:03:52.936Z,6.10
2022-10-23T12:09:00.956Z,5.60
2022-10-23T12:14:02.775Z,5.30
2022-10-23T12:19:19.823Z,6.10
2022-10-23T12:24:55.724Z,5.70
2022-10-23T12:30:03.819Z,5.30
2022-10-23T12:35:18.264Z,5.10
2022-10-23T12:40:20.601Z,5.40
2022-10-23T12:45:29.648Z,4.60
2022-10-23T12:50:33.548Z,5.30
2022-10-23T12:55:53.202Z,4.60
2022-10-23T13:00:57.392Z,6.20
2022-10-23T13:06:04.222Z,5.20
2022-10-23T13:11:08.957Z,4.90
2022-10-23T13:16:19.445Z,4.30
2022-10-23T13:21:27.227Z,4.40
2022-10-23T13:26:35.930Z,5.20
2022-10-23T13:31:37.844Z,4.80
2022-10-23T13:36:55.614Z,4.80
2022-10-23T13:42:01.883Z,4.70
2022-10-23T13:47:04.759Z,4.70
2022-10-23T13:52:12.052Z,4.60
2022-10-23T13:57:15.513Z,4.10
2022-10-23T14:02:23.108Z,8.90
2022-10-23T14:07:24.964Z,13.20
2022-10-23T14:12:26.757Z,5.00
2022-10-23T14:17:28.583Z,4.40
2022-10-23T14:22:30.456Z,4.30
2022-10-23T14:27:32.361Z,4.30
2022-10-23T14:32:34.170Z,3.90
2022-10-23T14:37:35.996Z,3.40
2022-10-23T14:42:38.044Z,4.00
2022-10-23T14:47:39.823Z,3.50
2022-10-23T14:52:41.574Z,3.50
2022-10-23T14:57:43.645Z,3.50
2022-10-23T15:02:45.823Z,2.80
2022-10-23T15:07:47.968Z,5.20
2022-10-23T15:12:49.783Z,3.70
2022-10-23T15:17:51.588Z,4.00
2022-10-23T15:22:53.465Z,4.00
2022-10-23T15:27:55.267Z,4.30
2022-10-23T15:32:57.153Z,4.30
2022-10-23T15:37:58.904Z,4.80
2022-10-23T15:43:00.705Z,5.10
2022-10-23T15:48:02.590Z,5.20
2022-10-23T15:53:04.805Z,4.90
2022-10-23T15:58:06.880Z,5.90
2022-10-23T16:03:08.724Z,7.20
2022-10-23T16:08:10.745Z,8.30
2022-10-23T16:13:12.564Z,10.40
2022-10-23T16:18:16.165Z,10.60
2022-10-23T16:23:17.922Z,10.60
2022-10-23T16:28:20.018Z,12.00
2022-10-23T16:33:21.831Z,11.50
2022-10-23T16:38:23.601Z,11.00
2022-10-23T16:43:26.343Z,11.50
2022-10-23T16:48:52.659Z,11.20
2022-10-23T16:53:55.416Z,11.70
2022-10-23T17:04:08.338Z,13.10
2022-10-23T17:09:10.220Z,15.50
2022-10-23T17:14:18.771Z,17.10
2022-10-23T17:19:43.742Z,18.20
2022-10-23T17:24:48.884Z,17.30
2022-10-23T17:29:53.347Z,18.90
2022-10-23T17:34:55.145Z,23.70
2022-10-23T17:40:00.167Z,28.40
2022-10-23T17:45:03.276Z,28.80
2022-10-23T17:50:09.509Z,27.00
2022-10-23T17:55:11.573Z,24.50
2022-10-23T18:00:13.648Z,24.80
2022-10-23T18:05:15.479Z,22.50
2022-10-23T18:10:17.404Z,25.10
2022-10-23T18:15:19.272Z,29.60
2022-10-23T18:20:21.345Z,29.10
2022-10-23T18:25:23.059Z,29.10
2022-10-23T18:30:24.975Z,24.40
2022-10-23T18:35:26.880Z,26.70
2022-10-23T18:40:29.217Z,26.00
2022-10-23T18:45:33.108Z,24.40
2022-10-23T18:50:38.322Z,25.60
2022-10-23T18:55:49.431Z,23.20
2022-10-23T19:00:51.337Z,23.10
2022-10-23T19:05:53.627Z,24.30
2022-10-23T19:10:57.760Z,24.70
2022-10-23T19:15:59.559Z,22.70
2022-10-23T19:21:04.961Z,23.70
2022-10-23T19:26:09.440Z,23.10
2022-10-23T19:31:12.411Z,24.50
2022-10-23T19:36:14.497Z,24.20
2022-10-23T19:41:18.234Z,26.90
2022-10-23T19:46:20.022Z,32.50
2022-10-23T19:51:21.857Z,36.10
2022-10-23T19:56:24.124Z,38.30
2022-10-23T20:01:28.694Z,38.00
2022-10-23T20:06:37.149Z,34.30
2022-10-23T20:11:39.942Z,33.50
2022-10-23T20:16:48.067Z,28.50
2022-10-23T20:21:51.896Z,31.50
2022-10-23T20:26:55.949Z,34.50
2022-10-23T20:31:57.864Z,36.10
2022-10-23T20:37:00.788Z,35.40
2022-10-23T20:42:03.655Z,33.20
2022-10-23T20:47:05.429Z,32.50
2022-10-23T20:52:07.154Z,33.90
2022-10-23T20:57:09.023Z,31.80
2022-10-23T21:02:10.818Z,32.90
2022-10-23T21:07:12.919Z,31.30
2022-10-23T21:12:16.692Z,34.60
2022-10-23T21:17:18.811Z,34.30
2022-10-23T21:22:20.558Z,34.30
2022-10-23T21:27:22.688Z,37.00
2022-10-23T21:32:24.495Z,38.90
2022-10-23T21:37:26.503Z,35.30
2022-10-23T21:47:33.453Z,35.10
2022-10-23T21:52:35.260Z,40.00
2022-10-23T21:57:37.183Z,40.70
2022-10-23T22:02:38.945Z,36.10
2022-10-23T22:07:40.795Z,35.70
2022-10-23T22:12:42.710Z,35.00
2022-10-23T22:17:45.010Z,35.70
2022-10-23T22:22:46.858Z,33.00
2022-10-23T22:27:48.667Z,31.40
2022-10-23T22:32:50.526Z,28.80
2022-10-23T22:37:52.625Z,26.90
2022-10-23T22:42:54.493Z,26.90
2022-10-23T22:47:56.258Z,28.60
2022-10-23T22:52:58.333Z,27.20
2022-10-23T22:58:00.085Z,25.70
2022-10-23T23:03:01.926Z,24.90
2022-10-23T23:08:03.783Z,25.80
2022-10-23T23:13:08.387Z,24.40
2022-10-23T23:18:10.188Z,20.80
2022-10-23T23:23:14.203Z,23.20
2022-10-23T23:28:18.539Z,24.00
2022-10-23T23:33:22.331Z,22.10
2022-10-23T23:38:24.265Z,24.40
2022-10-23T23:43:26.035Z,26.10
2022-10-23T23:48:28.005Z,25.20
2022-10-23T23:53:29.774Z,25.20
2022-10-23T23:58:31.538Z,25.10
